Time;durP1;ratioP1;P1;durP2;ratioP2;P2;SDS_P1;SDS_P2;PMS_P1;PMS_P2;Temp;Humidity;BMP_temperature;BMP_pressure;BME280_temperature;BME280_humidity;BME280_pressure;Samples;Min_cycle;Max_cycle;Signal;HPM_P1;HPM_P2
2023/09/15 00:01:39;;;;;;;9.60;5.80;;;27.40;47.10;;;;;;5079961;27;89081;-59
2023/09/15 00:04:08;;;;;;;8.87;5.87;;;27.40;47.10;;;;;;5082363;27;88723;-59
2023/09/15 00:06:37;;;;;;;9.27;5.67;;;27.40;47.10;;;;;;5072354;27;87590;-58
2023/09/15 00:09:14;;;;;;;8.07;6.00;;;27.30;47.00;;;;;;5077772;27;89680;-60
2023/09/15 00:11:43;;;;;;;9.80;5.43;;;;;;;;;;5079224;27;87876;-59
2023/09/15 00:14:12;;;;;;;6.43;4.73;;;27.30;46.50;;;;;;5082395;27;88882;-59
2023/09/15 00:16:41;;;;;;;10.13;5.70;;;27.30;47.00;;;;;;5082249;27;87873;-59
2023/09/15 00:19:13;;;;;;;9.90;5.53;;;27.30;47.00;;;;;;5082326;27;89658;-59
2023/09/15 00:21:42;;;;;;;7.43;4.83;;;27.30;47.00;;;;;;5077545;27;89251;-59
2023/09/15 00:24:12;;;;;;;6.80;4.30;;;27.30;47.00;;;;;;5081623;27;87565;-59
2023/09/15 00:26:40;;;;;;;7.00;3.73;;;27.30;47.00;;;;;;5080286;27;87349;-59
2023/09/15 00:29:09;;;;;;;7.53;4.27;;;27.30;47.00;;;;;;5081797;27;88382;-59
2023/09/15 00:31:37;;;;;;;6.43;4.23;;;27.30;47.00;;;;;;5080761;27;89107;-59
2023/09/15 00:34:06;;;;;;;6.00;4.17;;;27.30;46.90;;;;;;5081601;27;88703;-58
2023/09/15 00:36:34;;;;;;;5.97;3.97;;;27.30;47.00;;;;;;5081068;27;87656;-59
2023/09/15 00:39:02;;;;;;;12.20;4.30;;;27.30;46.90;;;;;;5081715;27;89867;-59
2023/09/15 00:41:32;;;;;;;5.37;3.83;;;27.30;46.90;;;;;;5079333;27;89988;-59
2023/09/15 00:44:00;;;;;;;7.77;3.60;;;27.30;46.90;;;;;;5079065;27;89725;-58
2023/09/15 00:46:30;;;;;;;7.10;3.90;;;27.30;46.90;;;;;;5078619;27;87692;-59
2023/09/15 00:48:59;;;;;;;5.70;3.70;;;27.30;46.90;;;;;;5078590;27;88398;-59
2023/09/15 00:51:27;;;;;;;3.53;2.83;;;27.30;46.90;;;;;;5081009;27;88924;-59
2023/09/15 00:53:55;;;;;;;5.43;3.27;;;27.30;46.90;;;;;;5080711;27;89020;-58
2023/09/15 00:56:24;;;;;;;6.33;3.20;;;27.30;46.90;;;;;;5082139;27;87493;-58
2023/09/15 00:58:53;;;;;;;4.30;3.03;;;27.30;46.90;;;;;;5072016;27;89716;-59
2023/09/15 01:01:22;;;;;;;4.70;3.53;;;27.30;46.90;;;;;;5078641;27;88939;-59
2023/09/15 01:03:52;;;;;;;4.37;2.80;;;27.20;46.80;;;;;;5081300;27;88853;-59
2023/09/15 01:06:22;;;;;;;6.90;3.13;;;27.20;46.80;;;;;;5078161;27;88014;-58
2023/09/15 01:08:51;;;;;;;5.53;2.50;;;27.20;46.80;;;;;;5081949;27;89682;-58
2023/09/15 01:11:19;;;;;;;4.87;2.83;;;27.20;46.80;;;;;;5070372;27;87784;-58
2023/09/15 01:13:49;;;;;;;3.70;2.63;;;27.20;46.80;;;;;;5060958;27;88680;-58
2023/09/15 01:16:23;;;;;;;3.80;2.37;;;27.20;46.80;;;;;;5080567;27;87551;-58
2023/09/15 01:18:58;;;;;;;3.07;2.50;;;27.20;46.80;;;;;;5079577;27;89636;-58
2023/09/15 01:22:04;;;;;;;3.57;2.37;;;27.20;46.80;;;;;;5077119;27;89109;-59
2023/09/15 01:25:09;;;;;;;2.83;1.90;;;27.20;46.80;;;;;;5058609;27;88963;-58
2023/09/15 01:27:52;;;;;;;2.23;1.97;;;27.10;46.80;;;;;;5061106;27;87644;-60
2023/09/15 01:30:22;;;;;;;3.43;2.83;;;27.10;46.80;;;;;;5060653;27;89979;-59
2023/09/15 01:32:50;;;;;;;2.33;2.13;;;27.10;46.80;;;;;;5079459;27;88777;-59
2023/09/15 01:35:19;;;;;;;2.97;2.13;;;27.10;46.80;;;;;;5080907;27;89660;-59
2023/09/15 01:37:47;;;;;;;5.63;2.27;;;27.10;46.80;;;;;;5079742;27;87531;-59
2023/09/15 01:40:15;;;;;;;5.30;2.10;;;27.10;46.80;;;;;;5081016;27;89656;-58
2023/09/15 01:42:44;;;;;;;4.03;2.43;;;27.10;46.80;;;;;;5079154;27;89603;-58
2023/09/15 01:45:12;;;;;;;3.47;2.37;;;27.10;46.80;;;;;;5080666;27;88838;-58
2023/09/15 01:47:42;;;;;;;2.23;1.90;;;27.10;46.80;;;;;;5081164;27;87525;-58
2023/09/15 01:50:11;;;;;;;2.27;1.90;;;27.10;46.80;;;;;;5081894;27;89800;-58
2023/09/15 01:52:39;;;;;;;3.43;1.77;;;27.00;46.70;;;;;;5080808;27;89141;-58
2023/09/15 01:55:08;;;;;;;2.43;2.23;;;27.10;46.80;;;;;;5081176;27;88828;-58
2023/09/15 01:57:36;;;;;;;1.67;1.57;;;27.10;46.80;;;;;;5080640;27;87795;-59
2023/09/15 02:00:06;;;;;;;1.93;1.73;;;27.00;46.70;;;;;;5081054;27;89695;-59
2023/09/15 02:02:34;;;;;;;2.60;1.63;;;27.00;46.70;;;;;;5068241;27;89113;-59
2023/09/15 02:05:05;;;;;;;1.90;1.70;;;27.00;46.70;;;;;;5060637;27;87699;-58
2023/09/15 02:07:33;;;;;;;1.73;1.63;;;27.00;46.70;;;;;;5078135;27;87505;-58
2023/09/15 02:10:01;;;;;;;5.63;2.33;;;27.00;46.70;;;;;;5080753;27;89984;-59
2023/09/15 02:12:29;;;;;;;3.30;2.10;;;27.00;46.70;;;;;;5064456;27;89125;-59
2023/09/15 02:14:58;;;;;;;2.97;2.10;;;27.00;46.70;;;;;;5078827;27;88851;-58
2023/09/15 02:17:26;;;;;;;3.23;1.83;;;27.00;46.70;;;;;;5070784;27;87656;-57
2023/09/15 02:19:54;;;;;;;3.27;1.77;;;27.00;46.70;;;;;;5061004;27;89725;-57
2023/09/15 02:22:24;;;;;;;2.40;1.90;;;27.00;46.70;;;;;;5070844;27;90317;-58
2023/09/15 02:24:52;;;;;;;2.13;1.50;;;27.00;46.80;;;;;;5071854;27;89407;-59
2023/09/15 02:27:20;;;;;;;2.60;1.87;;;27.00;46.80;;;;;;5065198;27;87576;-59
2023/09/15 02:29:48;;;;;;;2.07;1.60;;;27.00;46.80;;;;;;5060336;27;89731;-59
2023/09/15 02:32:17;;;;;;;3.10;2.43;;;27.00;46.80;;;;;;5073218;27;89183;-59
2023/09/15 02:34:45;;;;;;;3.17;1.87;;;27.00;46.80;;;;;;5079233;27;88820;-59
2023/09/15 02:37:14;;;;;;;4.17;2.27;;;27.00;46.80;;;;;;5075448;27;87630;-58
2023/09/15 02:39:44;;;;;;;2.03;1.63;;;27.00;47.40;;;;;;5065280;27;89886;-59
2023/09/15 02:42:13;;;;;;;2.90;2.10;;;27.00;46.80;;;;;;5075752;27;89139;-59
2023/09/15 02:44:42;;;;;;;4.13;1.50;;;27.00;46.80;;;;;;5065625;27;88805;-58
2023/09/15 02:47:11;;;;;;;1.87;1.67;;;27.00;46.80;;;;;;5077843;27;87980;-59
2023/09/15 02:49:39;;;;;;;2.03;1.83;;;27.00;46.80;;;;;;5071268;27;88578;-58
2023/09/15 02:52:07;;;;;;;1.87;1.57;;;27.00;46.80;;;;;;5072362;27;88889;-58
2023/09/15 02:54:35;;;;;;;2.00;1.70;;;27.00;46.80;;;;;;5060989;27;87381;-58
2023/09/15 02:57:05;;;;;;;2.00;1.67;;;27.00;46.80;;;;;;5070968;27;87747;-59
2023/09/15 02:59:33;;;;;;;2.23;1.70;;;26.90;46.70;;;;;;5072142;27;89585;-58
2023/09/15 03:02:02;;;;;;;2.23;1.80;;;26.90;46.70;;;;;;5061587;27;89078;-59
2023/09/15 03:04:30;;;;;;;2.90;1.70;;;26.90;46.70;;;;;;5070418;27;89382;-58
2023/09/15 03:06:58;;;;;;;2.63;1.50;;;26.90;46.70;;;;;;5079086;27;87601;-58
2023/09/15 03:09:27;;;;;;;1.40;1.30;;;26.90;46.70;;;;;;5073407;27;89737;-58
2023/09/15 03:11:55;;;;;;;2.00;1.80;;;26.90;46.70;;;;;;5078628;27;91394;-58
2023/09/15 03:14:24;;;;;;;1.93;1.30;;;26.90;46.70;;;;;;5078023;27;89866;-58
2023/09/15 03:16:53;;;;;;;2.37;1.53;;;26.90;46.70;;;;;;5081802;27;87503;-58
2023/09/15 03:19:22;;;;;;;2.37;1.50;;;26.90;46.70;;;;;;5071584;27;89735;-59
2023/09/15 03:21:50;;;;;;;2.20;1.57;;;26.90;46.70;;;;;;5077485;27;88259;-59
2023/09/15 03:24:20;;;;;;;1.90;1.47;;;26.80;46.70;;;;;;5079067;27;88545;-59
2023/09/15 03:26:48;;;;;;;2.03;1.13;;;26.80;46.70;;;;;;5077743;27;88037;-59
2023/09/15 03:29:16;;;;;;;1.30;1.20;;;26.90;46.70;;;;;;5073790;27;89639;-58
2023/09/15 03:31:46;;;;;;;2.30;1.47;;;26.80;46.70;;;;;;5080137;27;89188;-59
2023/09/15 03:34:14;;;;;;;2.47;1.43;;;26.80;46.70;;;;;;5061052;27;88910;-59
2023/09/15 03:36:42;;;;;;;2.60;1.80;;;26.80;46.70;;;;;;5071438;27;89929;-58
2023/09/15 03:39:11;;;;;;;1.70;1.50;;;26.80;46.70;;;;;;5064371;27;90138;-58
2023/09/15 03:41:39;;;;;;;2.70;1.50;;;26.80;46.70;;;;;;5070122;27;89120;-58
2023/09/15 03:44:07;;;;;;;2.93;1.60;;;26.80;46.70;;;;;;5082251;27;88857;-58
2023/09/15 03:46:36;;;;;;;1.60;1.30;;;26.80;46.70;;;;;;5080818;27;87415;-58
2023/09/15 03:49:06;;;;;;;1.70;1.50;;;26.80;46.70;;;;;;5080475;27;89923;-60
2023/09/15 03:51:34;;;;;;;1.97;1.53;;;26.80;46.70;;;;;;5079931;27;89122;-59
2023/09/15 03:54:03;;;;;;;2.20;1.70;;;26.80;46.70;;;;;;5079693;27;89074;-59
2023/09/15 03:56:32;;;;;;;3.17;1.73;;;26.80;46.70;;;;;;5080035;27;87905;-59
2023/09/15 03:59:00;;;;;;;1.53;1.43;;;26.80;46.70;;;;;;5072437;27;89657;-59
2023/09/15 04:01:29;;;;;;;4.73;1.57;;;26.80;46.70;;;;;;5058807;27;90082;-59
2023/09/15 04:03:59;;;;;;;3.20;1.43;;;26.80;46.70;;;;;;5060858;27;89934;-59
2023/09/15 04:06:30;;;;;;;2.70;1.50;;;26.80;46.60;;;;;;5065832;27;87699;-59
2023/09/15 04:08:59;;;;;;;1.33;1.23;;;26.80;46.70;;;;;;5064364;27;89543;-59
2023/09/15 04:11:27;;;;;;;1.70;1.27;;;26.80;46.70;;;;;;5077919;27;88004;-59
2023/09/15 04:13:55;;;;;;;4.67;1.80;;;26.80;46.70;;;;;;5075877;27;88799;-59
2023/09/15 04:16:24;;;;;;;1.40;1.13;;;26.80;46.70;;;;;;5077762;27;87722;-58
2023/09/15 04:18:52;;;;;;;2.20;1.63;;;26.70;46.60;;;;;;5081213;27;89694;-58
2023/09/15 04:21:23;;;;;;;3.60;1.33;;;26.80;46.70;;;;;;5080751;27;89082;-58
2023/09/15 04:23:52;;;;;;;1.53;1.30;;;26.80;46.70;;;;;;5080926;27;88775;-58
2023/09/15 04:26:20;;;;;;;1.90;1.03;;;26.80;46.70;;;;;;5063641;27;87659;-58
2023/09/15 04:28:48;;;;;;;1.87;1.37;;;26.70;46.70;;;;;;5073929;27;89659;-58
2023/09/15 04:31:17;;;;;;;1.90;1.13;;;26.70;46.70;;;;;;5072822;27;89216;-58
2023/09/15 04:33:45;;;;;;;1.53;1.07;;;26.70;47.30;;;;;;5081776;27;88673;-58
2023/09/15 04:36:13;;;;;;;1.53;1.40;;;26.70;46.70;;;;;;5078161;27;87522;-59
2023/09/15 04:38:41;;;;;;;1.83;1.23;;;26.70;46.70;;;;;;5068760;27;89569;-58
2023/09/15 04:41:11;;;;;;;3.20;1.60;;;26.70;46.70;;;;;;5076467;27;89107;-58
2023/09/15 04:43:39;;;;;;;2.60;1.67;;;26.70;46.70;;;;;;5082643;27;88923;-58
2023/09/15 04:46:07;;;;;;;2.23;1.53;;;26.70;46.70;;;;;;5078472;27;87502;-58
2023/09/15 04:48:35;;;;;;;3.93;2.20;;;26.70;46.80;;;;;;5080901;27;89668;-58
2023/09/15 04:51:04;;;;;;;3.00;1.87;;;26.70;46.80;;;;;;5079874;27;90050;-59
2023/09/15 04:53:32;;;;;;;3.93;2.30;;;26.70;46.80;;;;;;5081088;27;89719;-59
2023/09/15 04:56:03;;;;;;;3.07;2.40;;;26.70;46.80;;;;;;5078166;27;87652;-59
2023/09/15 04:58:32;;;;;;;4.37;2.23;;;26.60;46.70;;;;;;5075478;27;89881;-59
2023/09/15 05:01:00;;;;;;;4.67;2.53;;;26.60;46.80;;;;;;5079325;27;89085;-58
2023/09/15 05:03:29;;;;;;;4.13;2.23;;;26.60;46.80;;;;;;5079703;27;88712;-59
2023/09/15 05:05:57;;;;;;;3.20;2.33;;;26.60;46.80;;;;;;5075823;27;87510;-58
2023/09/15 05:08:25;;;;;;;3.57;2.77;;;26.60;46.80;;;;;;5080368;27;87485;-58
2023/09/15 05:10:54;;;;;;;4.30;2.83;;;26.60;46.80;;;;;;5079833;27;87490;-58
2023/09/15 05:13:23;;;;;;;3.90;2.87;;;26.60;46.80;;;;;;5078569;27;87766;-58
2023/09/15 05:15:52;;;;;;;4.13;2.40;;;26.60;46.80;;;;;;5078392;27;88244;-58
2023/09/15 05:18:21;;;;;;;4.33;2.93;;;26.60;46.80;;;;;;5070070;27;89610;-59
2023/09/15 05:20:49;;;;;;;5.07;3.03;;;26.50;46.80;;;;;;5078529;27;91718;-58
2023/09/15 05:23:17;;;;;;;4.07;3.27;;;26.60;46.80;;;;;;5079020;27;88777;-58
2023/09/15 05:25:45;;;;;;;4.33;3.20;;;26.60;46.80;;;;;;5079519;27;87711;-58
2023/09/15 05:28:14;;;;;;;3.27;2.97;;;26.60;46.90;;;;;;5079228;27;89665;-58
2023/09/15 05:30:42;;;;;;;4.60;3.40;;;26.60;46.80;;;;;;5079483;27;89110;-58
2023/09/15 05:33:12;;;;;;;3.53;2.70;;;26.60;47.50;;;;;;5081407;27;87471;-58
2023/09/15 05:35:40;;;;;;;5.30;2.97;;;26.60;46.90;;;;;;5079864;27;87477;-58
2023/09/15 05:38:09;;;;;;;4.37;2.83;;;26.60;46.80;;;;;;5076394;27;89220;-58
2023/09/15 05:40:38;;;;;;;5.07;3.30;;;26.60;46.80;;;;;;5078825;27;89938;-58
2023/09/15 05:43:08;;;;;;;4.60;2.80;;;26.60;46.80;;;;;;5077254;27;90021;-58
2023/09/15 05:45:39;;;;;;;4.33;3.00;;;26.60;47.50;;;;;;5079849;27;87582;-58
2023/09/15 05:48:12;;;;;;;6.47;3.77;;;26.60;47.50;;;;;;5072780;27;89760;-58
2023/09/15 05:50:41;;;;;;;5.13;2.97;;;26.60;46.80;;;;;;5072204;27;89138;-58
2023/09/15 05:53:10;;;;;;;5.07;3.47;;;26.60;46.80;;;;;;5077662;27;88832;-58
2023/09/15 05:55:38;;;;;;;4.33;3.20;;;26.60;46.80;;;;;;5078245;27;87604;-58
2023/09/15 05:58:06;;;;;;;6.87;3.67;;;26.60;46.70;;;;;;5080392;27;89838;-58
2023/09/15 06:00:34;;;;;;;6.30;4.43;;;26.60;46.70;;;;;;5080394;27;88555;-59
2023/09/15 06:03:03;;;;;;;6.17;3.53;;;26.70;46.80;;;;;;5078521;27;88678;-58
2023/09/15 06:05:31;;;;;;;6.60;3.80;;;26.70;46.70;;;;;;5076508;27;89396;-58
2023/09/15 06:08:03;;;;;;;5.87;3.93;;;26.70;46.70;;;;;;5081487;27;89724;-58
2023/09/15 06:10:31;;;;;;;4.73;3.63;;;26.70;46.70;;;;;;5078761;27;88600;-58
2023/09/15 06:12:59;;;;;;;7.83;4.13;;;26.70;46.70;;;;;;5080514;27;88931;-58
2023/09/15 06:15:28;;;;;;;7.30;4.37;;;26.70;46.70;;;;;;5077304;27;87786;-58
2023/09/15 06:17:56;;;;;;;10.60;4.37;;;26.70;46.70;;;;;;5073733;27;89438;-58
2023/09/15 06:20:26;;;;;;;6.33;3.90;;;26.70;46.70;;;;;;5079666;27;89432;-59
2023/09/15 06:22:54;;;;;;;6.77;4.40;;;26.70;46.70;;;;;;5079035;27;88640;-58
2023/09/15 06:25:24;;;;;;;6.47;3.67;;;26.70;46.70;;;;;;5079673;27;87502;-59
2023/09/15 06:27:52;;;;;;;6.10;4.30;;;26.80;46.90;;;;;;5078175;27;89589;-59
2023/09/15 06:30:26;;;;;;;5.20;3.93;;;26.80;46.90;;;;;;5079173;27;90245;-59
2023/09/15 06:32:55;;;;;;;6.33;4.20;;;26.80;46.90;;;;;;5077984;27;90145;-59
2023/09/15 06:35:23;;;;;;;4.70;4.00;;;26.80;46.90;;;;;;5077533;27;88543;-59
2023/09/15 06:37:52;;;;;;;6.67;4.37;;;26.80;47.00;;;;;;5079372;27;89754;-58
2023/09/15 06:40:20;;;;;;;5.70;3.97;;;26.80;47.00;;;;;;5077475;27;89148;-58
2023/09/15 06:42:50;;;;;;;7.33;3.67;;;26.80;47.00;;;;;;5076854;27;87293;-59
2023/09/15 06:45:18;;;;;;;6.77;4.00;;;26.90;47.10;;;;;;5072760;27;88364;-58
2023/09/15 06:47:46;;;;;;;5.60;3.73;;;26.90;47.10;;;;;;5079352;27;89279;-58
2023/09/15 06:50:14;;;;;;;6.27;3.97;;;26.90;47.10;;;;;;5077651;27;89211;-59
2023/09/15 06:52:42;;;;;;;5.57;3.23;;;26.90;47.10;;;;;;5078174;27;87766;-59
2023/09/15 06:55:11;;;;;;;7.43;4.20;;;26.90;47.10;;;;;;5078228;27;87761;-59
2023/09/15 06:57:39;;;;;;;4.80;3.27;;;26.90;47.10;;;;;;5079203;27;89733;-59
2023/09/15 07:00:12;;;;;;;6.30;3.77;;;26.90;47.00;;;;;;5075310;27;89258;-59
2023/09/15 07:02:41;;;;;;;3.23;2.63;;;26.90;47.10;;;;;;5078946;27;89990;-63
2023/09/15 07:05:10;;;;;;;5.27;3.30;;;26.80;46.90;;;;;;5076161;27;87651;-59
2023/09/15 07:07:39;;;;;;;4.63;3.17;;;26.80;46.90;;;;;;5076584;27;89542;-59
2023/09/15 07:10:08;;;;;;;4.60;3.40;;;26.80;46.90;;;;;;5076283;27;89078;-60
2023/09/15 07:12:36;;;;;;;9.90;2.77;;;26.80;46.90;;;;;;5078518;27;88681;-59
2023/09/15 07:15:06;;;;;;;3.50;2.33;;;26.70;46.80;;;;;;5079694;27;87575;-59
2023/09/15 07:17:36;;;;;;;7.37;3.27;;;26.70;46.70;;;;;;5075491;27;89661;-59
2023/09/15 07:20:04;;;;;;;10.40;2.80;;;26.70;46.60;;;;;;5076071;27;90112;-59
2023/09/15 07:22:32;;;;;;;5.23;3.03;;;26.70;46.70;;;;;;5075946;27;89551;-59
2023/09/15 07:25:01;;;;;;;5.67;3.10;;;26.70;46.60;;;;;;5075569;27;87449;-59
2023/09/15 07:27:30;;;;;;;4.17;3.30;;;26.70;46.60;;;;;;5076633;27;88255;-59
2023/09/15 07:29:58;;;;;;;9.27;3.43;;;26.70;46.50;;;;;;5078854;27;89181;-59
2023/09/15 07:32:26;;;;;;;6.13;3.07;;;26.60;46.40;;;;;;5078572;27;88796;-59
2023/09/15 07:34:55;;;;;;;4.73;2.83;;;26.50;46.40;;;;;;5079802;27;87624;-59
2023/09/15 07:37:24;;;;;;;11.23;3.57;;;26.30;46.50;;;;;;5082232;27;89739;-59
2023/09/15 07:39:52;;;;;;;4.53;3.20;;;26.20;46.40;;;;;;5080910;27;89236;-59
2023/09/15 07:42:20;;;;;;;3.53;2.57;;;26.00;46.40;;;;;;5081158;27;88734;-59
2023/09/15 07:44:48;;;;;;;5.00;2.70;;;25.90;46.50;;;;;;5082999;27;87805;-58
2023/09/15 07:47:17;;;;;;;4.27;2.27;;;25.80;46.50;;;;;;5078329;27;87440;-59
2023/09/15 07:49:45;;;;;;;4.57;3.00;;;25.80;46.50;;;;;;5083073;27;89287;-59
2023/09/15 07:52:14;;;;;;;4.67;2.83;;;25.80;46.60;;;;;;5076785;27;88685;-59
2023/09/15 07:54:44;;;;;;;7.47;3.77;;;25.70;46.50;;;;;;5073566;27;87579;-59
2023/09/15 07:57:14;;;;;;;3.17;2.50;;;25.70;46.50;;;;;;5078742;27;89689;-59
2023/09/15 07:59:42;;;;;;;4.40;2.47;;;25.60;46.50;;;;;;5071071;27;89012;-59
2023/09/15 08:02:10;;;;;;;2.50;2.23;;;25.60;46.50;;;;;;5072340;27;88819;-59
2023/09/15 08:04:38;;;;;;;2.73;2.00;;;25.50;46.50;;;;;;5082615;27;87597;-60
2023/09/15 08:07:07;;;;;;;4.70;2.67;;;25.50;46.50;;;;;;5081217;27;88610;-59
2023/09/15 08:09:36;;;;;;;3.17;2.10;;;25.60;46.50;;;;;;5073805;27;88937;-59
2023/09/15 08:12:05;;;;;;;2.90;2.60;;;25.60;46.50;;;;;;5079392;27;89765;-60
2023/09/15 08:14:33;;;;;;;2.70;2.50;;;25.60;46.40;;;;;;5068890;27;87578;-60
2023/09/15 08:17:02;;;;;;;3.10;2.63;;;25.60;46.40;;;;;;5077658;27;89854;-59
2023/09/15 08:19:31;;;;;;;4.03;2.10;;;25.50;46.40;;;;;;5074816;27;90462;-59
2023/09/15 08:22:00;;;;;;;3.40;2.43;;;25.50;46.50;;;;;;5072281;27;88822;-59
2023/09/15 08:24:28;;;;;;;5.17;2.67;;;25.40;46.40;;;;;;5067941;27;87142;-58
2023/09/15 08:26:58;;;;;;;4.27;2.13;;;25.40;46.40;;;;;;5076215;27;89603;-59
2023/09/15 08:29:26;;;;;;;4.50;2.20;;;25.40;46.50;;;;;;5069269;27;89297;-59
2023/09/15 08:31:55;;;;;;;2.70;1.37;;;25.50;46.60;;;;;;5063810;27;89411;-59
2023/09/15 08:34:23;;;;;;;4.27;1.47;;;25.60;46.60;;;;;;5062525;27;87836;-59
2023/09/15 08:36:51;;;;;;;1.67;1.40;;;25.70;46.50;;;;;;5064362;27;89520;-59
2023/09/15 08:39:19;;;;;;;6.40;1.57;;;25.80;46.50;;;;;;5065485;27;89090;-58
2023/09/15 08:41:51;;;;;;;3.20;1.37;;;25.90;46.50;;;;;;5074032;27;88940;-58
2023/09/15 08:44:21;;;;;;;1.03;0.80;;;25.90;46.40;;;;;;5072638;27;87419;-60
2023/09/15 08:46:50;;;;;;;2.67;1.20;;;26.00;46.40;;;;;;5076481;27;89324;-60
2023/09/15 08:49:18;;;;;;;3.87;1.80;;;26.10;46.40;;;;;;5072174;27;90428;-59
2023/09/15 08:51:46;;;;;;;4.83;2.20;;;26.10;46.40;;;;;;5078320;27;89305;-60
2023/09/15 08:54:15;;;;;;;6.70;1.37;;;26.20;46.50;;;;;;5076911;27;87738;-60
2023/09/15 08:56:44;;;;;;;6.47;0.97;;;26.20;46.50;;;;;;5079860;27;89596;-60
2023/09/15 08:59:12;;;;;;;1.10;1.00;;;26.30;46.70;;;;;;5079807;27;90065;-60
2023/09/15 09:01:42;;;;;;;2.47;1.30;;;26.30;46.60;;;;;;5081178;27;89689;-60
2023/09/15 09:04:11;;;;;;;3.20;1.63;;;26.30;46.60;;;;;;5081012;27;87681;-60
2023/09/15 09:06:40;;;;;;;4.33;1.60;;;26.30;46.60;;;;;;5080100;27;89658;-60
2023/09/15 09:09:08;;;;;;;1.93;1.20;;;26.30;46.70;;;;;;5079524;27;89105;-60
2023/09/15 09:11:37;;;;;;;4.83;1.50;;;26.30;46.70;;;;;;5080935;27;89306;-60
2023/09/15 09:14:11;;;;;;;2.43;1.93;;;26.40;46.70;;;;;;5081275;27;87506;-59
2023/09/15 09:16:40;;;;;;;7.17;2.33;;;26.40;46.80;;;;;;5077827;27;89764;-59
2023/09/15 09:19:10;;;;;;;4.00;2.47;;;26.40;46.80;;;;;;5079059;27;89166;-60
2023/09/15 09:21:38;;;;;;;2.40;1.80;;;26.40;46.80;;;;;;5077155;27;88825;-60
2023/09/15 09:24:09;;;;;;;4.57;2.43;;;26.50;46.90;;;;;;5079686;27;87781;-59
2023/09/15 09:26:37;;;;;;;5.23;1.80;;;26.50;46.90;;;;;;5079341;27;88751;-60
2023/09/15 09:29:06;;;;;;;1.67;1.33;;;26.50;46.90;;;;;;5079628;27;89178;-60
2023/09/15 09:31:34;;;;;;;4.27;2.30;;;26.50;47.60;;;;;;5078469;27;87807;-59
2023/09/15 09:34:02;;;;;;;4.77;2.80;;;26.50;47.00;;;;;;5076244;27;87497;-60
2023/09/15 09:36:32;;;;;;;4.03;2.03;;;26.50;47.00;;;;;;5077590;27;89694;-60
2023/09/15 09:39:00;;;;;;;2.70;1.90;;;26.50;47.10;;;;;;5078259;27;88462;-60
2023/09/15 09:41:29;;;;;;;3.87;2.23;;;26.50;47.10;;;;;;5072661;27;88913;-60
2023/09/15 09:43:59;;;;;;;3.83;1.90;;;26.50;47.10;;;;;;5075084;27;87589;-60
2023/09/15 09:46:27;;;;;;;2.00;1.77;;;26.60;47.20;;;;;;5072395;27;89347;-60
2023/09/15 09:48:56;;;;;;;2.77;1.70;;;26.60;47.30;;;;;;5098436;27;90047;-61
2023/09/15 09:51:24;;;;;;;9.80;2.40;;;26.60;47.30;;;;;;5084373;27;89766;-60
2023/09/15 09:53:55;;;;;;;3.37;2.73;;;26.60;47.40;;;;;;5077927;27;88136;-59
2023/09/15 09:56:24;;;;;;;4.23;2.50;;;26.60;47.40;;;;;;5069404;27;89964;-60
2023/09/15 09:58:52;;;;;;;5.90;2.53;;;26.60;47.40;;;;;;5074591;27;89238;-61
2023/09/15 10:01:20;;;;;;;3.97;2.63;;;26.60;47.40;;;;;;5075482;27;88902;-60
2023/09/15 10:03:49;;;;;;;3.00;1.93;;;26.60;47.40;;;;;;5078791;27;87704;-61
2023/09/15 10:06:18;;;;;;;4.43;2.77;;;26.70;47.40;;;;;;5073010;27;89672;-60
2023/09/15 10:08:46;;;;;;;3.27;2.50;;;26.70;47.30;;;;;;5097943;27;89034;-60
2023/09/15 10:11:16;;;;;;;6.00;2.63;;;26.70;47.30;;;;;;5097186;27;88799;-60
2023/09/15 10:13:45;;;;;;;4.20;2.70;;;26.70;47.20;;;;;;5076178;27;87951;-56
2023/09/15 10:16:13;;;;;;;3.77;2.70;;;26.70;47.20;;;;;;5077137;27;89619;-58
2023/09/15 10:18:41;;;;;;;3.73;2.67;;;26.80;47.20;;;;;;5076047;27;89249;-58
2023/09/15 10:21:10;;;;;;;3.00;2.33;;;26.80;47.20;;;;;;5064566;27;88792;-56
2023/09/15 10:23:38;;;;;;;4.90;2.60;;;26.80;47.20;;;;;;5083223;27;87708;-55
2023/09/15 10:26:06;;;;;;;3.00;2.30;;;26.80;47.20;;;;;;5076258;27;88220;-55
2023/09/15 10:28:36;;;;;;;3.17;2.17;;;26.80;47.10;;;;;;5084797;27;89312;-58
2023/09/15 10:31:07;;;;;;;2.73;2.37;;;26.80;47.10;;;;;;5076606;27;88037;-59
2023/09/15 10:33:40;;;;;;;3.63;2.50;;;26.90;47.20;;;;;;5073561;27;87434;-54
2023/09/15 10:36:12;;;;;;;2.93;2.50;;;26.90;47.10;;;;;;5074661;27;90135;-58
2023/09/15 10:38:41;;;;;;;3.17;2.37;;;26.90;47.20;;;;;;5074878;27;89979;-57
2023/09/15 10:41:11;;;;;;;4.07;2.53;;;26.90;47.10;;;;;;5073185;27;88986;-57
2023/09/15 10:43:50;;;;;;;6.37;2.80;;;27.00;47.20;;;;;;5072780;27;87438;-58
2023/09/15 10:46:18;;;;;;;3.50;2.30;;;27.00;47.20;;;;;;5073751;27;89438;-58
2023/09/15 10:48:48;;;;;;;2.53;1.90;;;27.00;47.20;;;;;;5074807;27;89135;-56
2023/09/15 10:51:18;;;;;;;3.17;2.33;;;27.10;47.30;;;;;;5074120;27;88861;-56
2023/09/15 10:53:48;;;;;;;2.33;2.03;;;27.10;47.30;;;;;;5072518;27;87725;-56
2023/09/15 10:56:16;;;;;;;3.97;2.40;;;27.10;47.30;;;;;;5076291;27;88401;-56
2023/09/15 10:58:46;;;;;;;3.37;2.00;;;27.10;47.20;;;;;;5076743;27;89688;-57
2023/09/15 11:01:17;;;;;;;3.87;1.80;;;27.10;47.20;;;;;;5073572;27;88914;-57
2023/09/15 11:03:45;;;;;;;3.87;1.63;;;27.10;47.30;;;;;;5073656;27;89216;-57
2023/09/15 11:06:14;;;;;;;2.20;1.37;;;27.20;47.30;;;;;;5076745;27;89670;-57
2023/09/15 11:08:43;;;;;;;3.53;1.83;;;27.20;47.30;;;;;;5073828;27;88207;-57
2023/09/15 11:11:11;;;;;;;5.17;1.77;;;27.20;47.30;;;;;;5080219;27;88938;-57
2023/09/15 11:13:40;;;;;;;3.23;1.80;;;27.20;47.30;;;;;;5081146;27;87630;-57
2023/09/15 11:16:09;;;;;;;2.00;1.67;;;27.20;47.30;;;;;;5083876;27;88520;-56
2023/09/15 11:18:40;;;;;;;2.73;1.90;;;27.20;47.30;;;;;;5079906;27;89150;-57
2023/09/15 11:21:12;;;;;;;4.13;2.53;;;27.20;47.30;;;;;;5097965;27;87478;-57
2023/09/15 11:23:44;;;;;;;1.53;1.43;;;27.20;47.30;;;;;;5100489;27;88137;-57
2023/09/15 11:26:12;;;;;;;2.17;1.97;;;27.20;47.30;;;;;;5081931;27;89772;-57
2023/09/15 11:28:55;;;;;;;2.77;1.73;;;27.20;47.20;;;;;;5079747;27;90124;-57
2023/09/15 11:31:23;;;;;;;1.83;1.63;;;27.30;47.30;;;;;;5080443;27;88567;-57
2023/09/15 11:33:55;;;;;;;2.90;1.63;;;27.30;47.30;;;;;;5080860;27;87523;-57
2023/09/15 11:36:23;;;;;;;2.73;1.87;;;27.20;47.20;;;;;;5080649;27;89723;-57
2023/09/15 11:38:52;;;;;;;3.47;2.37;;;27.20;47.20;;;;;;5078740;27;89350;-57
2023/09/15 11:41:29;;;;;;;2.53;2.00;;;27.30;47.30;;;;;;5079614;27;88846;-57
2023/09/15 11:43:58;;;;;;;5.00;2.57;;;27.30;47.30;;;;;;5080583;27;87571;-57
2023/09/15 11:46:26;;;;;;;3.80;2.40;;;27.30;47.20;;;;;;5080485;27;88374;-57
2023/09/15 11:48:55;;;;;;;2.57;2.27;;;27.30;47.20;;;;;;5080278;27;89098;-57
2023/09/15 11:51:23;;;;;;;3.07;2.30;;;27.30;47.20;;;;;;5079763;27;88912;-57
2023/09/15 11:53:52;;;;;;;3.03;2.17;;;27.30;47.20;;;;;;5079588;27;88203;-56
2023/09/15 11:56:20;;;;;;;2.53;1.97;;;27.30;47.20;;;;;;5085988;27;89661;-57
2023/09/15 11:58:49;;;;;;;3.97;2.20;;;27.30;47.20;;;;;;5101434;27;88008;-57
2023/09/15 12:01:18;;;;;;;4.57;2.83;;;27.30;47.20;;;;;;5081211;27;88813;-58
2023/09/15 12:03:48;;;;;;;2.30;1.60;;;27.30;47.20;;;;;;5060225;27;87616;-59
2023/09/15 12:06:18;;;;;;;2.23;2.00;;;27.40;47.30;;;;;;5067584;27;89398;-58
2023/09/15 12:08:47;;;;;;;2.07;1.70;;;27.30;47.20;;;;;;5087301;27;89140;-58
2023/09/15 12:11:17;;;;;;;3.37;2.33;;;27.40;47.30;;;;;;5100896;27;89066;-57
2023/09/15 12:13:48;;;;;;;2.43;1.70;;;27.40;47.20;;;;;;5100592;27;87664;-57
2023/09/15 12:16:17;;;;;;;4.43;2.10;;;27.40;47.20;;;;;;5099622;27;89489;-57
2023/09/15 12:18:46;;;;;;;4.47;2.07;;;27.30;47.20;;;;;;5099354;27;90311;-57
2023/09/15 12:21:15;;;;;;;3.90;2.03;;;27.40;47.30;;;;;;5099164;27;89755;-57
2023/09/15 12:23:51;;;;;;;2.63;1.87;;;27.40;47.30;;;;;;5100924;27;88203;-58
2023/09/15 12:26:19;;;;;;;2.17;1.50;;;27.30;47.20;;;;;;5101070;27;89563;-57
2023/09/15 12:28:48;;;;;;;3.07;1.80;;;27.40;47.20;;;;;;5100484;27;89159;-57
2023/09/15 12:31:20;;;;;;;2.83;2.17;;;27.30;47.20;;;;;;5099903;27;88769;-58
2023/09/15 12:33:48;;;;;;;3.43;2.00;;;27.40;47.20;;;;;;5099467;27;88444;-57
2023/09/15 12:36:17;;;;;;;3.67;2.07;;;27.40;47.20;;;;;;5100197;27;89705;-57
2023/09/15 12:38:47;;;;;;;2.73;2.10;;;27.30;47.20;;;;;;5100146;27;89151;-57
2023/09/15 12:41:15;;;;;;;2.77;2.10;;;27.30;47.20;;;;;;5099132;27;88744;-58
2023/09/15 12:43:43;;;;;;;3.83;2.20;;;27.40;47.20;;;;;;5100155;27;87943;-58
2023/09/15 12:46:12;;;;;;;1.73;1.63;;;27.40;47.20;;;;;;5099838;27;89674;-57
2023/09/15 12:48:40;;;;;;;2.87;2.37;;;27.40;47.20;;;;;;5099897;27;89183;-57
2023/09/15 12:51:09;;;;;;;3.00;1.80;;;27.40;47.20;;;;;;5099944;27;88092;-57
2023/09/15 12:53:37;;;;;;;3.47;2.07;;;27.50;47.20;;;;;;5100330;27;88074;-58
2023/09/15 12:56:06;;;;;;;3.00;1.83;;;27.50;47.20;;;;;;5096232;27;89795;-57
2023/09/15 12:58:35;;;;;;;2.33;2.13;;;27.50;47.20;;;;;;5078598;27;87667;-57